createdAt,value
2018-03-02T00:00:55.546Z,59.01
2018-03-02T00:01:55.511Z,59.39
2018-03-02T00:02:55.474Z,59.48
2018-03-02T00:03:55.479Z,59.3
2018-03-02T00:04:55.147Z,59.2
2018-03-02T00:05:55.365Z,59.48
2018-03-02T00:06:55.333Z,59.48
2018-03-02T00:07:55.036Z,59.11
2018-03-02T00:08:55.251Z,59.39
2018-03-02T00:09:55.357Z,59.3
2018-03-02T00:10:55.174Z,59.67
2018-03-02T00:11:55.135Z,59.67
2018-03-02T00:12:54.851Z,60.05
2018-03-02T00:13:55.063Z,59.58
2018-03-02T00:14:55.028Z,59.67
2018-03-02T00:15:54.986Z,59.39
2018-03-02T00:16:54.948Z,59.95
2018-03-02T00:17:54.911Z,59.95
2018-03-02T00:18:54.626Z,60.14
2018-03-02T00:19:54.834Z,60.14
2018-03-02T00:20:54.797Z,60.14
2018-03-02T00:21:54.762Z,59.77
2018-03-02T00:22:54.722Z,60.42
2018-03-02T00:23:54.684Z,60.24
2018-03-02T00:24:54.648Z,59.95
2018-03-02T00:25:54.609Z,60.05
2018-03-02T00:26:54.572Z,60.24
2018-03-02T00:27:54.537Z,60.05
2018-03-02T00:28:54.501Z,60.05
2018-03-02T00:29:54.466Z,59.86
2018-03-02T00:30:54.421Z,59.86
2018-03-02T00:31:54.385Z,60.05
2018-03-02T00:32:54.345Z,60.42
2018-03-02T00:33:54.311Z,60.42
2018-03-02T00:34:54.274Z,60.14
2018-03-02T00:35:54.240Z,60.8
2018-03-02T00:36:54.201Z,60.61
2018-03-02T00:37:54.158Z,60.71
2018-03-02T00:38:54.125Z,60.71
2018-03-02T00:39:54.084Z,60.71
2018-03-02T00:40:54.065Z,60.61
2018-03-02T00:41:54.012Z,60.42
2018-03-02T00:42:53.972Z,60.42
2018-03-02T00:43:53.936Z,60.42
2018-03-02T00:44:53.898Z,60.61
2018-03-02T00:45:53.858Z,60.8
2018-03-02T00:46:53.821Z,60.99
2018-03-02T00:47:53.787Z,61.08
2018-03-02T00:48:53.752Z,61.27
2018-03-02T00:49:53.712Z,61.18
2018-03-02T00:50:53.674Z,61.27
2018-03-02T00:51:53.635Z,61.18
2018-03-02T00:52:53.598Z,61.27
2018-03-02T00:53:53.559Z,61.08
2018-03-02T00:54:53.273Z,61.27
2018-03-02T00:55:53.234Z,61.36
2018-03-02T00:56:53.450Z,61.18
2018-03-02T00:57:53.409Z,61.65
2018-03-02T00:58:53.371Z,61.46
2018-03-02T00:59:53.435Z,61.65
2018-03-02T01:00:53.298Z,61.27
2018-03-02T01:01:53.259Z,61.27
2018-03-02T01:02:53.221Z,61.27
2018-03-02T01:03:53.182Z,61.27
2018-03-02T01:04:53.145Z,61.18
2018-03-02T01:05:52.859Z,61.18
2018-03-02T01:06:53.121Z,61.46
2018-03-02T01:07:52.784Z,61.27
2018-03-02T01:08:52.996Z,61.46
2018-03-02T01:09:52.964Z,61.46
2018-03-02T01:10:52.920Z,61.65
2018-03-02T01:11:52.823Z,61.84
2018-03-02T01:12:52.594Z,61.55
2018-03-02T01:13:52.808Z,62.21
2018-03-02T01:14:52.768Z,62.21
2018-03-02T01:15:52.733Z,62.03
2018-03-02T01:16:52.692Z,61.93
2018-03-02T01:17:52.664Z,62.12
2018-03-02T01:18:52.618Z,61.93
2018-03-02T01:19:52.577Z,61.93
2018-03-02T01:20:52.541Z,62.5
2018-03-02T01:21:52.503Z,62.31
2018-03-02T01:22:52.464Z,62.4
2018-03-02T01:23:52.428Z,62.31
2018-03-02T01:24:52.392Z,62.12
2018-03-02T01:25:52.354Z,62.21
2018-03-02T01:26:52.315Z,62.4
2018-03-02T01:27:52.280Z,62.03
2018-03-02T01:28:52.250Z,62.03
2018-03-02T01:29:52.205Z,62.31
2018-03-02T01:30:52.267Z,62.21
2018-03-02T01:31:52.128Z,62.4
2018-03-02T01:32:52.092Z,62.69
2018-03-02T01:33:52.056Z,62.4
2018-03-02T01:34:52.023Z,62.4
2018-03-02T01:35:52.075Z,62.69
2018-03-02T01:36:51.700Z,62.69
2018-03-02T01:37:51.902Z,62.69
2018-03-02T01:38:51.864Z,62.97
2018-03-02T01:39:51.824Z,62.78
2018-03-02T01:40:51.790Z,62.78
2018-03-02T01:41:51.750Z,63.16
2018-03-02T01:42:51.714Z,62.97
2018-03-02T01:43:51.677Z,63.35
2018-03-02T01:44:51.636Z,63.16
2018-03-02T01:45:51.597Z,62.97
2018-03-02T01:46:51.562Z,63.06
2018-03-02T01:47:51.525Z,62.88
2018-03-02T01:48:51.484Z,62.97
2018-03-02T01:49:51.198Z,63.06
2018-03-02T01:50:51.411Z,63.16
2018-03-02T01:51:51.376Z,63.06
2018-03-02T01:52:51.087Z,63.06
2018-03-02T01:53:51.296Z,63.63
2018-03-02T01:54:51.011Z,63.44
2018-03-02T01:55:51.220Z,63.44
2018-03-02T01:56:50.937Z,63.54
2018-03-02T01:57:51.152Z,62.88
2018-03-02T01:58:51.110Z,63.44
2018-03-02T01:59:51.068Z,63.06
2018-03-02T02:00:51.030Z,63.35
2018-03-02T02:01:50.988Z,63.63
2018-03-02T02:02:50.953Z,63.16
2018-03-02T02:03:50.912Z,63.25
2018-03-02T02:04:50.873Z,63.16
2018-03-02T02:05:50.837Z,63.25
2018-03-02T02:06:50.800Z,63.16
2018-03-02T02:07:50.761Z,63.82
2018-03-02T02:08:50.723Z,63.73
2018-03-02T02:09:50.688Z,63.91
2018-03-02T02:10:50.649Z,63.73
2018-03-02T02:11:50.609Z,63.73
2018-03-02T02:12:50.574Z,64.1
2018-03-02T02:13:50.534Z,63.63
2018-03-02T02:14:50.494Z,63.63
2018-03-02T02:15:50.465Z,63.82
2018-03-02T02:16:50.420Z,63.73
2018-03-02T02:17:50.138Z,63.63
2018-03-02T02:18:50.346Z,63.82
2018-03-02T02:19:50.058Z,63.73
2018-03-02T02:20:50.270Z,63.82
2018-03-02T02:21:50.231Z,63.82
2018-03-02T02:22:50.199Z,63.73
2018-03-02T02:23:50.153Z,63.73
2018-03-02T02:24:49.868Z,63.54
2018-03-02T02:25:50.083Z,63.73
2018-03-02T02:26:49.793Z,63.91
2018-03-02T02:27:50.004Z,64.1
2018-03-02T02:28:49.966Z,63.91
2018-03-02T02:29:49.927Z,64.1
2018-03-02T02:30:49.892Z,64.1
2018-03-02T02:31:49.852Z,64.2
2018-03-02T02:32:49.817Z,64.1
2018-03-02T02:33:49.789Z,64.29
2018-03-02T02:34:50.191Z,64.48
2018-03-02T02:35:49.702Z,63.91
2018-03-02T02:36:49.667Z,63.91
2018-03-02T02:37:49.624Z,64.1
2018-03-02T02:38:49.588Z,64.48
2018-03-02T02:39:49.547Z,63.91
2018-03-02T02:40:49.514Z,64.01
2018-03-02T02:41:49.474Z,64.1
2018-03-02T02:42:49.439Z,64.67
2018-03-02T02:43:49.396Z,64.39
2018-03-02T02:44:49.107Z,64.67
2018-03-02T02:45:49.331Z,64.29
2018-03-02T02:46:49.032Z,64.39
2018-03-02T02:47:49.245Z,64.58
2018-03-02T02:48:49.204Z,64.58
2018-03-02T02:49:49.171Z,64.48
2018-03-02T02:50:48.883Z,64.29
2018-03-02T02:51:49.090Z,64.76
2018-03-02T02:52:49.014Z,64.95
2018-03-02T02:53:49.256Z,64.86
2018-03-02T02:54:48.973Z,64.67
2018-03-02T02:58:50.777Z,64.58
2018-03-02T02:59:37.997Z,64.58
2018-03-02T03:00:37.964Z,64.76
2018-03-02T03:01:37.919Z,64.67
2018-03-02T03:02:37.878Z,64.39
2018-03-02T03:03:37.844Z,64.58
2018-03-02T03:04:37.804Z,64.76
2018-03-02T03:05:37.771Z,64.58
2018-03-02T03:06:37.727Z,64.95
2018-03-02T03:07:37.691Z,65.14
2018-03-02T03:08:37.652Z,64.95
2018-03-02T03:09:37.623Z,64.86
2018-03-02T03:10:37.575Z,65.05
2018-03-02T03:11:37.540Z,64.76
2018-03-02T03:12:37.500Z,65.05
2018-03-02T03:13:37.462Z,65.14
2018-03-02T03:14:37.421Z,65.14
2018-03-02T03:15:37.385Z,64.95
2018-03-02T03:16:37.099Z,65.14
2018-03-02T03:17:37.063Z,65.14
2018-03-02T03:18:37.275Z,65.14
2018-03-02T03:19:37.231Z,65.14
2018-03-02T03:20:37.195Z,65.05
2018-03-02T03:21:37.159Z,65.05
2018-03-02T03:22:36.870Z,65.42
2018-03-02T03:23:36.838Z,65.42
2018-03-02T03:24:37.044Z,65.52
2018-03-02T03:25:37.002Z,65.52
2018-03-02T03:26:36.966Z,64.86
2018-03-02T03:27:36.926Z,65.23
2018-03-02T03:28:36.640Z,65.42
2018-03-02T03:29:36.853Z,65.42
2018-03-02T03:30:36.820Z,65.52
2018-03-02T03:31:36.784Z,65.33
2018-03-02T03:32:36.739Z,65.42
2018-03-02T03:33:36.452Z,65.42
2018-03-02T03:34:36.666Z,65.7
2018-03-02T03:35:36.380Z,65.42
2018-03-02T03:36:36.584Z,65.42
2018-03-02T03:37:36.548Z,65.42
2018-03-02T03:38:36.507Z,65.52
2018-03-02T03:39:36.475Z,65.52
2018-03-02T03:40:36.432Z,66.08
2018-03-02T03:41:36.395Z,65.7
2018-03-02T03:42:36.355Z,65.7
2018-03-02T03:43:36.352Z,65.7
2018-03-02T03:44:36.280Z,65.8
2018-03-02T03:45:36.241Z,66.17
2018-03-02T03:46:35.957Z,66.17
2018-03-02T03:47:35.918Z,65.99
2018-03-02T03:48:36.130Z,65.99
2018-03-02T03:49:36.090Z,65.89
2018-03-02T03:50:36.054Z,65.8
2018-03-02T03:51:36.015Z,66.17
2018-03-02T03:52:35.974Z,66.27
2018-03-02T03:53:35.938Z,66.55
2018-03-02T03:54:35.650Z,66.55
2018-03-02T03:55:35.865Z,66.36
2018-03-02T03:56:35.821Z,66.64
2018-03-02T03:57:35.785Z,66.27
2018-03-02T03:58:35.796Z,66.46
2018-03-02T03:59:35.706Z,66.46
2018-03-02T04:00:35.674Z,66.83
2018-03-02T04:01:35.631Z,66.83
2018-03-02T04:02:35.594Z,66.93
2018-03-02T04:03:35.556Z,66.55
2018-03-02T04:04:35.517Z,67.02
2018-03-02T04:05:37.486Z,67.02
2018-03-02T04:06:36.640Z,66.83
2018-03-02T04:07:35.472Z,66.93
2018-03-02T04:08:35.366Z,67.12
2018-03-02T04:09:35.331Z,67.21
2018-03-02T04:10:35.287Z,67.3
2018-03-02T04:11:35.247Z,66.93
2018-03-02T04:12:35.209Z,67.12
2018-03-02T04:13:35.173Z,67.12
2018-03-02T04:14:35.136Z,67.21
2018-03-02T04:15:35.096Z,67.21
2018-03-02T04:16:35.058Z,67.4
2018-03-02T04:17:35.020Z,67.49
2018-03-02T04:18:35.025Z,67.49
2018-03-02T04:19:34.946Z,67.21
2018-03-02T04:20:34.908Z,67.21
2018-03-02T04:21:34.869Z,67.21
2018-03-02T04:22:34.828Z,67.21
2018-03-02T04:23:34.804Z,67.21
2018-03-02T04:24:34.759Z,67.21
2018-03-02T04:25:34.468Z,67.3
2018-03-02T04:26:34.678Z,67.4
2018-03-02T04:27:34.642Z,67.4
2018-03-02T04:28:34.604Z,67.3
2018-03-02T04:29:34.561Z,66.93
2018-03-02T04:30:34.531Z,67.02
2018-03-02T04:31:34.484Z,67.3
2018-03-02T04:32:34.450Z,67.4
2018-03-02T04:33:34.407Z,67.4
2018-03-02T04:34:34.121Z,67.49
2018-03-02T04:35:34.331Z,67.3
2018-03-02T04:36:34.294Z,67.59
2018-03-02T04:37:34.256Z,67.59
2018-03-02T04:38:33.968Z,67.78
2018-03-02T04:39:33.932Z,67.87
2018-03-02T04:40:34.140Z,67.87
2018-03-02T04:41:34.102Z,67.97
2018-03-02T04:42:34.069Z,67.68
2018-03-02T04:43:34.032Z,67.59
2018-03-02T04:44:33.993Z,67.27
2018-03-02T04:45:33.704Z,67.78
2018-03-02T04:46:33.914Z,67.49
2018-03-02T04:47:33.882Z,67.93
2018-03-02T04:48:33.834Z,67.97
2018-03-02T04:49:33.808Z,68.06
2018-03-02T04:50:33.757Z,68.15
2018-03-02T04:51:33.725Z,68.15
2018-03-02T04:52:33.680Z,67.84
2018-03-02T04:53:33.396Z,68.15
2018-03-02T04:54:33.357Z,67.93
2018-03-02T04:55:33.565Z,67.87
2018-03-02T04:56:33.529Z,67.97
2018-03-02T04:57:33.491Z,67.93
2018-03-02T04:58:33.457Z,68.21
2018-03-02T04:59:33.419Z,68.21
2018-03-02T05:00:33.131Z,68.5
2018-03-02T05:01:33.337Z,68.5
2018-03-02T05:02:33.299Z,68.4
2018-03-02T05:03:33.267Z,68.5
2018-03-02T05:04:33.220Z,68.68
2018-03-02T05:05:33.182Z,68.59
2018-03-02T05:06:33.148Z,68.31
2018-03-02T05:07:32.859Z,68.59
2018-03-02T05:08:33.070Z,68.44
2018-03-02T05:09:33.030Z,68.5
2018-03-02T05:10:32.993Z,68.21
2018-03-02T05:11:32.953Z,68.21
2018-03-02T05:12:32.919Z,68.4
2018-03-02T05:13:32.881Z,68.97
2018-03-02T05:14:32.853Z,68.87
2018-03-02T05:15:32.552Z,69.16
2018-03-02T05:16:32.765Z,69.16
2018-03-02T05:17:32.724Z,68.97
2018-03-02T05:18:32.691Z,68.78
2018-03-02T05:19:32.645Z,68.87
2018-03-02T05:20:32.610Z,68.87
2018-03-02T05:21:32.570Z,68.87
2018-03-02T05:22:32.530Z,68.78
2018-03-02T05:23:32.493Z,68.59
2018-03-02T05:24:32.453Z,68.78
2018-03-02T05:25:32.424Z,68.68
2018-03-02T05:26:32.383Z,68.87
2018-03-02T05:27:32.341Z,68.68
2018-03-02T05:28:32.300Z,68.97
2018-03-02T05:29:32.315Z,68.5
2018-03-02T05:30:32.224Z,68.59
2018-03-02T05:31:32.231Z,68.87
2018-03-02T05:32:32.142Z,68.59
2018-03-02T05:33:32.106Z,68.87
2018-03-02T05:34:32.069Z,68.97
2018-03-02T05:35:32.027Z,68.68
2018-03-02T05:36:31.992Z,68.5
2018-03-02T05:37:31.953Z,68.78
2018-03-02T05:38:31.668Z,68.78
2018-03-02T05:39:31.879Z,68.59
2018-03-02T05:40:31.837Z,68.68
2018-03-02T05:41:31.551Z,68.78
2018-03-02T05:42:31.514Z,68.68
2018-03-02T05:43:31.724Z,68.78
2018-03-02T05:44:31.683Z,68.87
2018-03-02T05:45:31.650Z,68.87
2018-03-02T05:46:32.130Z,68.68
2018-03-02T05:47:31.571Z,68.87
2018-03-02T05:48:31.531Z,68.97
2018-03-02T05:49:31.493Z,69.25
2018-03-02T05:50:31.457Z,69.25
2018-03-02T05:51:31.166Z,69.25
2018-03-02T05:52:31.377Z,68.78
2018-03-02T05:53:31.341Z,69.25
2018-03-02T05:54:31.299Z,68.97
2018-03-02T05:55:31.013Z,69.16
2018-03-02T05:56:30.976Z,69.44
2018-03-02T05:57:31.184Z,68.97
2018-03-02T05:58:31.147Z,69.35
2018-03-02T05:59:31.109Z,68.97
2018-03-02T06:00:31.074Z,69.16
2018-03-02T06:01:31.033Z,68.97
2018-03-02T06:02:31.003Z,69.44
2018-03-02T06:03:30.958Z,69.44
2018-03-02T06:04:30.917Z,69.25
2018-03-02T06:05:30.878Z,69.06
2018-03-02T06:06:30.838Z,69.16
2018-03-02T06:07:30.857Z,69.06
2018-03-02T06:08:30.767Z,69.25
2018-03-02T06:09:30.725Z,69.16
2018-03-02T06:10:30.686Z,69.44
2018-03-02T06:11:30.402Z,69.35
2018-03-02T06:12:30.361Z,69.16
2018-03-02T06:13:30.576Z,69.16
2018-03-02T06:14:30.532Z,68.87
2018-03-02T06:15:30.493Z,69.44
2018-03-02T06:16:30.509Z,69.16
2018-03-02T06:17:30.417Z,69.35
2018-03-02T06:18:30.377Z,69.35
2018-03-02T06:19:30.337Z,69.25
2018-03-02T06:20:30.307Z,69.16
2018-03-02T06:21:30.017Z,69.25
2018-03-02T06:22:30.227Z,68.97
2018-03-02T06:23:30.196Z,69.16
2018-03-02T06:24:30.153Z,69.16
2018-03-02T06:25:30.121Z,69.06
2018-03-02T06:26:30.072Z,68.87
2018-03-02T06:27:30.051Z,69.06
2018-03-02T06:28:29.994Z,69.53
2018-03-02T06:29:29.954Z,69.44
2018-03-02T06:30:29.668Z,69.63
2018-03-02T06:31:29.636Z,69.44
2018-03-02T06:32:29.838Z,69.35
2018-03-02T06:33:29.804Z,69.44
2018-03-02T06:34:29.758Z,69.35
2018-03-02T06:35:29.723Z,69.35
2018-03-02T06:36:29.685Z,69.35
2018-03-02T06:37:29.648Z,69.25
2018-03-02T06:38:29.615Z,69.53
2018-03-02T06:39:29.570Z,69.63
2018-03-02T06:40:29.533Z,69.63
2018-03-02T06:41:29.496Z,69.16
2018-03-02T06:42:29.452Z,69.63
2018-03-02T06:43:29.167Z,69.72
2018-03-02T06:44:29.377Z,69.53
2018-03-02T06:45:29.524Z,69.53
2018-03-02T06:46:29.398Z,69.53
2018-03-02T06:47:29.065Z,69.53
2018-03-02T06:48:29.609Z,69.72
2018-03-02T06:49:29.669Z,69.53
2018-03-02T06:50:29.146Z,69.53
2018-03-02T06:51:29.107Z,69.91
2018-03-02T06:52:29.069Z,69.91
2018-03-02T06:53:29.032Z,69.91
2018-03-02T06:54:28.745Z,69.91
2018-03-02T06:55:28.972Z,69.82
2018-03-02T06:56:28.914Z,69.72
2018-03-02T06:57:28.878Z,69.91
2018-03-02T06:58:28.840Z,69.91
2018-03-02T06:59:28.553Z,69.72
2018-03-02T07:00:28.763Z,69.91
2018-03-02T07:01:28.878Z,69.91
2018-03-02T07:02:28.688Z,69.82
2018-03-02T07:03:28.649Z,69.91
2018-03-02T07:04:28.361Z,69.91
2018-03-02T07:05:28.321Z,69.91
2018-03-02T07:06:28.534Z,70.01
2018-03-02T07:07:28.491Z,70.01
2018-03-02T07:08:28.499Z,70.1
2018-03-02T07:09:28.424Z,70.1
2018-03-02T07:10:28.376Z,69.91
2018-03-02T07:11:28.341Z,70.01
2018-03-02T07:12:28.053Z,70.29
2018-03-02T07:13:28.261Z,70.01
2018-03-02T07:14:27.977Z,70.01
2018-03-02T07:15:28.188Z,70.19
2018-03-02T07:16:28.147Z,70.38
2018-03-02T07:17:27.864Z,70.38
2018-03-02T07:18:28.068Z,70.01
2018-03-02T07:19:28.032Z,70.1
2018-03-02T07:20:28.000Z,70.38
2018-03-02T07:21:27.989Z,70.1
2018-03-02T07:22:27.918Z,70.01
2018-03-02T07:23:27.890Z,70.19
2018-03-02T07:24:27.843Z,70.01
2018-03-02T07:25:27.616Z,70.01
2018-03-02T07:26:27.811Z,70.01
2018-03-02T07:27:27.480Z,70.19
2018-03-02T07:28:27.686Z,69.91
2018-03-02T07:29:27.734Z,69.91
2018-03-02T07:30:27.615Z,69.91
2018-03-02T07:31:27.704Z,70.01
2018-03-02T07:32:27.287Z,69.82
2018-03-02T07:33:27.500Z,69.72
2018-03-02T07:34:27.215Z,69.91
2018-03-02T07:35:27.424Z,69.91
2018-03-02T07:36:27.134Z,69.91
2018-03-02T07:37:27.345Z,69.44
2018-03-02T07:38:27.341Z,69.44
2018-03-02T07:39:27.271Z,69.91
2018-03-02T07:40:27.231Z,69.44
2018-03-02T07:41:26.946Z,69.63
2018-03-02T07:42:27.163Z,69.53
2018-03-02T07:43:27.113Z,69.25
2018-03-02T07:44:26.831Z,69.16
2018-03-02T07:45:27.040Z,69.35
2018-03-02T07:46:27.002Z,69.44
2018-03-02T07:47:26.964Z,69.44
2018-03-02T07:48:26.931Z,69.63
2018-03-02T07:49:26.893Z,69.53
2018-03-02T07:50:26.850Z,69.44
2018-03-02T07:51:26.812Z,69.16
2018-03-02T07:52:26.774Z,69
2018-03-02T07:53:26.488Z,69.1
2018-03-02T07:54:26.701Z,69.19
2018-03-02T07:55:26.413Z,69.1
2018-03-02T07:56:26.621Z,68.72
2018-03-02T07:57:26.588Z,68.91
2018-03-02T07:58:26.547Z,69.19
2018-03-02T07:59:26.515Z,69.1
2018-03-02T08:00:26.722Z,68.63
2018-03-02T08:01:26.435Z,68.63
2018-03-02T08:02:26.397Z,68.53
2018-03-02T08:03:26.374Z,68.72
2018-03-02T08:04:26.428Z,68.72
2018-03-02T08:05:26.279Z,69
2018-03-02T08:06:26.244Z,68.72
2018-03-02T08:07:26.208Z,68.34
2018-03-02T08:08:26.175Z,68.25
2018-03-02T08:09:26.134Z,68.34
2018-03-02T08:10:26.095Z,68.15
2018-03-02T08:11:26.057Z,68.15
2018-03-02T08:12:26.027Z,68.53
2018-03-02T08:13:25.982Z,68.44
2018-03-02T08:14:25.703Z,68.63
2018-03-02T08:15:26.227Z,68.53
2018-03-02T08:16:25.864Z,68.63
2018-03-02T08:17:25.583Z,68.25
2018-03-02T08:18:25.920Z,68.15
2018-03-02T08:19:25.552Z,67.87
2018-03-02T08:20:25.767Z,67.97
2018-03-02T08:21:25.708Z,68.15
2018-03-02T08:22:25.648Z,67.87
2018-03-02T08:23:25.609Z,67.21
2018-03-02T08:24:25.570Z,67.87
2018-03-02T08:25:25.532Z,67.21
2018-03-02T08:26:25.247Z,67.68
2018-03-02T08:27:25.208Z,67.02
2018-03-02T08:28:25.423Z,67.21
2018-03-02T08:29:25.379Z,67.21
2018-03-02T08:30:25.345Z,67.4
2018-03-02T08:31:25.357Z,67.4
2018-03-02T08:32:25.270Z,67.4
2018-03-02T08:33:24.984Z,67.3
2018-03-02T08:34:24.951Z,67.49
2018-03-02T08:35:25.163Z,67.49
2018-03-02T08:36:25.120Z,67.21
2018-03-02T08:37:25.082Z,66.74
2018-03-02T08:38:25.043Z,67.21
2018-03-02T08:39:24.912Z,66.74
2018-03-02T08:40:24.968Z,67.02
2018-03-02T08:41:24.933Z,66.55
2018-03-02T08:42:24.897Z,66.55
2018-03-02T08:43:24.861Z,66.36
2018-03-02T08:44:25.124Z,66.27
2018-03-02T08:45:24.785Z,66.17
2018-03-02T08:46:25.437Z,66.55
2018-03-02T08:47:25.093Z,66.46
2018-03-02T08:48:24.422Z,66.17
2018-03-02T08:49:24.631Z,66.46
2018-03-02T08:50:24.353Z,66.17
2018-03-02T08:51:24.675Z,66.36
2018-03-02T08:52:24.528Z,66.36
2018-03-02T08:53:24.485Z,66.55
2018-03-02T08:54:24.551Z,65.99
2018-03-02T08:55:24.414Z,66.17
2018-03-02T08:56:24.371Z,65.89
2018-03-02T08:57:24.285Z,65.89
2018-03-02T08:58:24.301Z,65.52
2018-03-02T08:59:24.063Z,65.8
2018-03-02T09:00:24.225Z,65.99
2018-03-02T09:01:24.187Z,65.42
2018-03-02T09:02:23.906Z,65.52
2018-03-02T09:03:24.117Z,65.8
2018-03-02T09:04:24.079Z,65.14
2018-03-02T09:05:24.046Z,65.52
2018-03-02T09:06:24.010Z,65.14
2018-03-02T09:07:23.988Z,65.14
2018-03-02T09:08:23.937Z,65.14
2018-03-02T09:09:23.647Z,65.33
2018-03-02T09:10:23.883Z,64.95
2018-03-02T09:11:23.704Z,64.95
2018-03-02T09:12:23.542Z,64.86
2018-03-02T09:13:23.753Z,64.48
2018-03-02T09:14:23.558Z,64.48
2018-03-02T09:15:23.680Z,64.89
2018-03-02T09:16:23.637Z,64.32
2018-03-02T09:17:23.609Z,64.39
2018-03-02T09:18:23.651Z,64.42
2018-03-02T09:19:23.530Z,63.76
2018-03-02T09:20:23.244Z,64.14
2018-03-02T09:21:23.206Z,64.14
2018-03-02T09:22:23.419Z,64.14
2018-03-02T09:23:23.384Z,63.76
2018-03-02T09:24:23.347Z,63.66
2018-03-02T09:25:23.309Z,63.76
2018-03-02T09:26:23.272Z,63.47
2018-03-02T09:27:23.280Z,63.19
2018-03-02T09:28:22.952Z,63.1
2018-03-02T09:29:22.915Z,63.1
2018-03-02T09:30:23.129Z,63.19
2018-03-02T09:31:23.094Z,63.1
2018-03-02T09:32:23.056Z,63.1
2018-03-02T09:33:23.016Z,63.1
2018-03-02T09:34:22.982Z,63.1
2018-03-02T09:35:22.947Z,62.91
2018-03-02T09:36:22.910Z,62.72
2018-03-02T09:37:22.922Z,62.72
2018-03-02T09:38:22.590Z,62.25
2018-03-02T09:39:22.554Z,62.34
2018-03-02T09:40:22.776Z,62.15
2018-03-02T09:41:23.351Z,62.06
2018-03-02T09:42:22.695Z,61.68
2018-03-02T09:43:22.413Z,61.11
2018-03-02T09:44:22.622Z,61.3
2018-03-02T09:45:22.583Z,61.3
2018-03-02T09:46:22.559Z,61.4
2018-03-02T09:47:22.511Z,61.11
2018-03-02T09:48:22.498Z,61.11
2018-03-02T09:49:22.193Z,61.02
2018-03-02T09:50:22.406Z,60.93
2018-03-02T09:51:22.373Z,60.83
2018-03-02T09:52:22.335Z,60.74
2018-03-02T09:53:22.299Z,60.58
2018-03-02T09:54:22.317Z,60.58
2018-03-02T09:55:22.229Z,60.58
2018-03-02T09:56:22.195Z,59.83
2018-03-02T09:57:21.912Z,60.21
2018-03-02T09:58:21.991Z,59.83
2018-03-02T09:59:22.210Z,59.92
2018-03-02T10:00:21.804Z,59.26
2018-03-02T10:01:22.016Z,59.64
2018-03-02T10:02:21.983Z,59.17
2018-03-02T10:03:21.700Z,59.45
2018-03-02T10:04:21.912Z,58.5
2018-03-02T10:05:21.977Z,58.79
2018-03-02T10:06:21.594Z,58.31
2018-03-02T10:07:21.805Z,58.31
2018-03-02T10:08:21.778Z,58.41
2018-03-02T10:09:21.735Z,58.31
2018-03-02T10:10:21.701Z,58.31
2018-03-02T10:11:21.666Z,57.94
2018-03-02T10:12:21.640Z,57.94
2018-03-02T10:13:21.597Z,57.84
2018-03-02T10:14:21.562Z,57.37
2018-03-02T10:15:21.532Z,57.94
2018-03-02T10:16:21.492Z,57.75
2018-03-02T10:17:21.488Z,57.84
2018-03-02T10:18:21.428Z,57.65
2018-03-02T10:19:21.385Z,57.75
2018-03-02T10:20:21.103Z,56.99
2018-03-02T10:21:21.068Z,57.28
2018-03-02T10:22:21.286Z,57.18
2018-03-02T10:23:21.312Z,57.18
2018-03-02T10:24:21.211Z,57.56
2018-03-02T10:25:21.178Z,56.9
2018-03-02T10:26:21.144Z,56.9
2018-03-02T10:27:21.106Z,56.9
2018-03-02T10:28:21.074Z,56.15
2018-03-02T10:29:21.043Z,55.96
2018-03-02T10:30:21.114Z,55.77
2018-03-02T10:31:20.721Z,55.86
2018-03-02T10:32:20.969Z,55.58
2018-03-02T10:33:20.901Z,55.67
2018-03-02T10:34:20.866Z,55.58
2018-03-02T10:35:20.830Z,55.39
2018-03-02T10:36:20.803Z,55.3
2018-03-02T10:37:21.035Z,55.2
2018-03-02T10:38:20.778Z,55.58
2018-03-02T10:39:20.699Z,55.3
2018-03-02T10:40:20.659Z,55.13
2018-03-02T10:41:20.628Z,55.13
2018-03-02T10:42:20.590Z,54.85
2018-03-02T10:43:20.558Z,54.57
2018-03-02T10:44:20.275Z,54.66
2018-03-02T10:45:20.490Z,54.75
2018-03-02T10:46:20.454Z,54.66
2018-03-02T10:47:20.422Z,54.66
2018-03-02T10:48:20.386Z,54.28
2018-03-02T10:49:20.422Z,54.19
2018-03-02T10:50:20.066Z,53.91
2018-03-02T10:51:20.346Z,53.91
2018-03-02T10:52:20.249Z,53.63
2018-03-02T10:53:20.217Z,54.47
2018-03-02T10:54:20.181Z,53.63
2018-03-02T10:55:20.147Z,53.81
2018-03-02T10:56:19.863Z,53.91
2018-03-02T10:57:20.076Z,54
2018-03-02T10:58:20.046Z,53.63
2018-03-02T10:59:20.010Z,53.72
2018-03-02T11:00:19.727Z,53.25
2018-03-02T11:01:19.694Z,53.44
2018-03-02T11:02:19.907Z,53.06
2018-03-02T11:03:19.875Z,53.25
2018-03-02T11:04:19.838Z,53.15
2018-03-02T11:05:19.805Z,53.06
2018-03-02T11:06:19.772Z,53.15
2018-03-02T11:07:19.745Z,53.25
2018-03-02T11:08:19.974Z,53.25
2018-03-02T11:09:19.671Z,53.15
2018-03-02T11:10:20.630Z,53.06
2018-03-02T11:11:19.604Z,53.25
2018-03-02T11:12:19.584Z,52.78
2018-03-02T11:13:19.535Z,52.59
2018-03-02T11:14:19.503Z,52.4
2018-03-02T11:15:19.464Z,52.4
2018-03-02T11:16:19.186Z,52.59
2018-03-02T11:17:19.406Z,52.49
2018-03-02T11:18:19.119Z,52.49
2018-03-02T11:19:19.332Z,52.68
2018-03-02T11:20:19.299Z,52.21
2018-03-02T11:21:19.263Z,52.11
2018-03-02T11:22:18.985Z,51.76
2018-03-02T11:23:18.949Z,51.76
2018-03-02T11:24:18.915Z,52.04
2018-03-02T11:25:18.884Z,51.76
2018-03-02T11:26:19.040Z,51.76
2018-03-02T11:27:18.971Z,51.39
2018-03-02T11:28:19.031Z,51.54
2018-03-02T11:29:18.755Z,51.45
2018-03-02T11:30:18.963Z,51.45
2018-03-02T11:31:18.931Z,51.45
2018-03-02T11:32:18.901Z,51.76
2018-03-02T11:33:18.864Z,51.39
2018-03-02T11:34:18.833Z,51.57
2018-03-02T11:35:18.799Z,51.57
2018-03-02T11:36:18.828Z,51.29
2018-03-02T11:37:18.959Z,50.72
2018-03-02T11:38:18.697Z,50.91
2018-03-02T11:39:18.665Z,51.67
2018-03-02T11:40:18.636Z,51.29
2018-03-02T11:41:18.597Z,51.39
2018-03-02T11:42:18.316Z,51.26
2018-03-02T11:43:18.527Z,51.26
2018-03-02T11:44:18.498Z,51.64
2018-03-02T11:45:18.215Z,51.54
2018-03-02T11:46:18.183Z,51.39
2018-03-02T11:47:18.148Z,51.48
2018-03-02T11:48:18.367Z,51.39
2018-03-02T11:49:18.331Z,51.39
2018-03-02T11:50:18.302Z,51.67
2018-03-02T11:51:18.263Z,50.63
2018-03-02T11:52:18.231Z,51.1
2018-03-02T11:53:18.199Z,50.82
2018-03-02T11:54:18.166Z,50.91
2018-03-02T11:55:17.883Z,50.91
2018-03-02T11:56:18.098Z,50.72
2018-03-02T11:57:18.069Z,50.63
2018-03-02T11:58:17.784Z,50.35
2018-03-02T11:59:18.007Z,50.53
2018-03-02T12:00:17.966Z,50.53
2018-03-02T12:01:17.938Z,50.63
2018-03-02T12:02:17.654Z,50.63
2018-03-02T12:03:18.473Z,50.25
2018-03-02T12:04:17.839Z,50.25
2018-03-02T12:05:17.806Z,50.35
2018-03-02T12:06:17.769Z,50.91
2018-03-02T12:07:17.738Z,50.44
2018-03-02T12:08:17.708Z,50.16
2018-03-02T12:09:17.426Z,50.44
2018-03-02T12:10:17.394Z,50.16
2018-03-02T12:11:17.523Z,49.68
2018-03-02T12:12:17.575Z,49.78
2018-03-02T12:13:17.546Z,49.59
2018-03-02T12:14:17.511Z,49.4
2018-03-02T12:15:17.480Z,49.59
2018-03-02T12:16:17.449Z,49.68
2018-03-02T12:17:17.415Z,49.4
2018-03-02T12:18:17.382Z,49.4
2018-03-02T12:19:17.349Z,49.49
2018-03-02T12:20:17.320Z,49.59
2018-03-02T12:21:17.286Z,49.52
2018-03-02T12:22:17.256Z,49.05
2018-03-02T12:23:17.219Z,49.05
2018-03-02T12:24:16.941Z,48.93
2018-03-02T12:25:17.160Z,49.14
2018-03-02T12:26:16.880Z,48.57
2018-03-02T12:27:16.846Z,48.55
2018-03-02T12:28:17.063Z,49.24
2018-03-02T12:29:17.032Z,49.05
2018-03-02T12:30:16.751Z,48.76
2018-03-02T12:31:16.968Z,48.76
2018-03-02T12:32:17.117Z,48.67
2018-03-02T12:33:16.653Z,48.76
2018-03-02T12:34:16.873Z,48.57
2018-03-02T12:35:16.844Z,48.67
2018-03-02T12:36:16.807Z,48.2
2018-03-02T12:37:16.527Z,48.01
2018-03-02T12:38:16.750Z,47.82
2018-03-02T12:39:16.715Z,48.1
2018-03-02T12:40:16.682Z,47.91
2018-03-02T12:41:16.647Z,47.82
2018-03-02T12:42:16.368Z,47.82
2018-03-02T12:43:16.395Z,47.91
2018-03-02T12:44:16.306Z,47.72
2018-03-02T12:45:16.534Z,47.82
2018-03-02T12:46:16.490Z,47.63
2018-03-02T12:47:16.209Z,47.82
2018-03-02T12:48:16.435Z,47.91
2018-03-02T12:49:16.578Z,48.1
2018-03-02T12:50:16.369Z,47.25
2018-03-02T12:51:16.088Z,47.34
2018-03-02T12:52:16.300Z,47.34
2018-03-02T12:53:16.270Z,46.88
2018-03-02T12:54:15.986Z,46.97
2018-03-02T12:55:16.292Z,47.16
2018-03-02T12:56:16.176Z,46.88
2018-03-02T12:57:16.139Z,46.97
2018-03-02T12:58:16.115Z,47.16